Sansom Park, Texas
Current Conditions -  °F | °C
As of 11:52 AM on Saturday 20 Dec 2014 (Local Time) from KNFW Reporting Station
Overcast Overcast  
Wind Chill: 50°   Ceiling: 2600
Heat Index: 50°   Visibility: 9mi
Dew Point: 42°   Wind: 0mph
Humidity: 74%   Direction: NA
Pressure: 30.3"   Gusts: NA
Location:  32.7763°N, 97.4092°W
Report Text: KNFW 201752Z 00000KT 9SM SCT015 OVC026 10/06 A3030 RMK AO2 SLP240 T01000056 10100 20094 50002
Loading
Personal Weather Stations






























Interactive Weather Map New forecast layout! Learn more

10-Day Weather Forecast

Advertisements
Track Severe Weather on mobile